Time,TemperatureF,DewpointF,PressureIn,WindDirection,WindDirectionDegrees,WindSpeedMPH,WindSpeedGustMPH,Humidity,HourlyPrecipIn,Conditions,Clouds,dailyrainin,SoftwareType,DateUTC
2014-09-22 00:13:00,57.0,51.0,29.99,NW,316,1.0,8.0,79,0.00,,,0.00,,2014-09-22 04:13:00,
2014-09-22 00:24:00,56.0,50.0,29.99,WNW,301,0.0,3.0,81,0.00,,,0.00,,2014-09-22 04:24:00,
2014-09-22 00:43:00,56.0,51.0,30.00,NW,316,0.0,5.0,82,0.00,,,0.00,,2014-09-22 04:43:00,
2014-09-22 00:53:00,55.0,50.0,30.00,WNW,302,0.0,3.0,82,0.00,,,0.00,,2014-09-22 04:53:00,
2014-09-22 01:23:00,55.0,50.0,30.00,WNW,299,1.0,5.0,84,0.00,,,0.00,,2014-09-22 05:23:00,
2014-09-22 01:43:00,54.0,50.0,30.00,WNW,295,0.0,3.0,85,0.00,,,0.00,,2014-09-22 05:43:00,
2014-09-22 01:53:00,54.0,50.0,30.01,West,268,0.0,3.0,85,0.00,,,0.00,,2014-09-22 05:53:00,
2014-09-22 02:12:00,54.0,50.0,30.01,WNW,303,0.0,3.0,85,0.00,,,0.00,,2014-09-22 06:12:00,
2014-09-22 02:23:00,53.0,49.0,30.01,West,278,0.0,2.0,86,0.00,,,0.00,,2014-09-22 06:23:00,
2014-09-22 02:52:00,52.0,49.0,30.01,WNW,284,0.0,2.0,88,0.00,,,0.00,,2014-09-22 06:52:00,
2014-09-22 03:12:00,52.0,49.0,30.01,NNW,340,0.0,2.0,88,0.00,,,0.00,,2014-09-22 07:12:00,
2014-09-22 03:22:00,52.0,49.0,30.01,WNW,295,0.0,2.0,89,0.00,,,0.00,,2014-09-22 07:22:00,
2014-09-22 03:43:00,52.0,49.0,30.02,NNW,332,0.0,3.0,88,0.00,,,0.00,,2014-09-22 07:43:00,
2014-09-22 03:52:00,51.0,48.0,30.02,WNW,303,1.0,3.0,89,0.00,,,0.00,,2014-09-22 07:52:00,
2014-09-22 04:22:00,52.0,47.0,30.02,NW,309,1.0,9.0,84,0.00,,,0.00,,2014-09-22 08:22:00,
2014-09-22 04:42:00,51.0,46.0,30.03,WNW,298,1.0,7.0,83,0.00,,,0.00,,2014-09-22 08:42:00,
2014-09-22 04:52:00,51.0,46.0,30.03,WNW,303,3.0,10.0,83,0.00,,,0.00,,2014-09-22 08:52:00,
2014-09-22 05:12:00,50.0,44.0,30.03,NNW,332,3.0,12.0,80,0.00,,,0.00,,2014-09-22 09:12:00,
2014-09-22 05:23:00,50.0,44.0,30.04,WNW,301,4.0,12.0,80,0.00,,,0.00,,2014-09-22 09:23:00,
2014-09-22 05:44:00,50.0,44.0,30.05,NW,316,2.0,6.0,80,0.00,,,0.00,,2014-09-22 09:44:00,
2014-09-22 05:54:00,49.0,43.0,30.05,NW,314,1.0,8.0,81,0.00,,,0.00,,2014-09-22 09:54:00,
2014-09-22 06:13:00,49.0,44.0,30.06,NW,314,1.0,5.0,83,0.00,,,0.00,,2014-09-22 10:13:00,
2014-09-22 06:24:00,48.0,43.0,30.06,WNW,298,1.0,3.0,84,0.00,,,0.00,,2014-09-22 10:24:00,
2014-09-22 06:43:00,48.0,44.0,30.07,NW,316,0.0,1.0,85,0.00,,,0.00,,2014-09-22 10:43:00,
2014-09-22 06:53:00,47.0,43.0,30.08,WNW,287,1.0,3.0,86,0.00,,,0.00,,2014-09-22 10:53:00,
2014-09-22 07:23:00,47.0,43.0,30.10,NW,321,0.0,3.0,86,0.00,,,0.00,,2014-09-22 11:23:00,
2014-09-22 07:42:00,46.0,42.0,30.11,NW,308,0.0,3.0,87,0.00,,,0.00,,2014-09-22 11:42:00,
2014-09-22 07:52:00,47.0,43.0,30.11,NW,305,1.0,7.0,86,0.00,,,0.00,,2014-09-22 11:52:00,
2014-09-22 08:23:00,48.0,43.0,30.13,NW,314,1.0,5.0,84,0.00,,,0.00,,2014-09-22 12:23:00,
2014-09-22 08:42:00,48.0,43.0,30.14,WNW,300,1.0,3.0,84,0.00,,,0.00,,2014-09-22 12:42:00,
2014-09-22 08:52:00,48.0,43.0,30.14,NW,306,0.0,5.0,83,0.00,,,0.00,,2014-09-22 12:52:00,
2014-09-22 09:22:00,49.0,43.0,30.14,NW,315,2.0,6.0,81,0.00,,,0.00,,2014-09-22 13:22:00,
2014-09-22 09:43:00,50.0,44.0,30.15,WNW,303,2.0,3.0,80,0.00,,,0.00,,2014-09-22 13:43:00,
2014-09-22 09:52:00,51.0,45.0,30.15,NW,309,1.0,6.0,79,0.00,,,0.00,,2014-09-22 13:52:00,
2014-09-22 10:23:00,52.0,45.0,30.17,NNW,341,1.0,7.0,77,0.00,,,0.00,,2014-09-22 14:23:00,
2014-09-22 10:43:00,53.0,46.0,30.18,NW,316,3.0,8.0,77,0.00,,,0.00,,2014-09-22 14:43:00,
2014-09-22 10:52:00,53.0,46.0,30.18,NE,36,1.0,6.0,77,0.00,,,0.00,,2014-09-22 14:52:00,
2014-09-22 11:23:00,54.0,46.0,30.18,NW,313,0.0,7.0,75,0.00,,,0.00,,2014-09-22 15:23:00,
2014-09-22 11:44:00,54.0,46.0,30.19,West,265,0.0,3.0,75,0.00,,,0.00,,2014-09-22 15:44:00,
2014-09-22 11:54:00,57.0,48.0,30.19,WNW,295,0.0,3.0,71,0.00,,,0.00,,2014-09-22 15:54:00,
2014-09-22 12:24:00,56.0,46.0,30.19,NW,312,2.0,5.0,70,0.00,,,0.00,,2014-09-22 16:24:00,
2014-09-22 12:53:00,58.0,48.0,30.20,West,275,1.0,6.0,69,0.00,,,0.00,,2014-09-22 16:53:00,
2014-09-22 13:21:00,58.0,-99.9,30.19,NW,326,2.0,7.0,66,0.00,,,0.00,,2014-09-22 17:21:00,
2014-09-22 13:43:00,61.0,49.0,30.19,NNW,333,2.0,7.0,65,0.00,,,0.00,,2014-09-22 17:43:00,
2014-09-22 13:53:00,60.0,47.0,30.19,NW,315,1.0,9.0,61,0.00,,,0.00,,2014-09-22 17:53:00,
2014-09-22 14:12:00,61.0,47.0,30.18,WNW,291,1.0,6.0,60,0.00,,,0.00,,2014-09-22 18:12:00,
2014-09-22 14:22:00,60.0,47.0,30.17,NW,318,1.0,6.0,62,0.00,,,0.00,,2014-09-22 18:22:00,
2014-09-22 14:42:00,63.0,47.0,30.17,NNW,330,1.0,5.0,56,0.00,,,0.00,,2014-09-22 18:42:00,
2014-09-22 14:52:00,61.0,47.0,30.17,NNW,341,3.0,6.0,59,0.00,,,0.00,,2014-09-22 18:52:00,